Latest Weather Observations for Telfer

IDW60801

Issued at 10:32 pm WST Friday 28 August 2015 (issued every 30 minutes, with the page automatically refreshed every 10 minutes)

About weather observations | Map of weather stations | Latest weather observations for WA | Other Formats
Station Details ID: 013030 Name: TELFER AERO Lat: -21.71 Lon: 122.23 Height: 291.9 m
Data from the previous 72 hours. | See also: Recent months at Telfer
Date/Time
WST
Temp
°C
App
Temp
°C
Dew
Point
Rel
Hum
%
Delta-T
°C
Wind Press
QNH
hPa
Press
MSL
hPa
Rain
since 9 am
mm
Dir
 
Spd
km/h
Gust
km/h
Spd
kts
Gust
kts
28/10:30pm 22.9 21.8 4.9 31 9.1 CALM 0 0 0 0 1016.3 1015.4 0.0
28/10:00pm 23.0 21.9 5.0 31 9.1 CALM 0 0 0 0 1016.5 1015.6 0.0
28/09:30pm 22.6 21.0 4.6 31 9.0 E 2 6 1 3 1016.4 1015.5 0.0
28/09:00pm 23.3 20.9 4.3 29 9.5 ENE 6 7 3 4 1016.4 1015.5 0.0
28/08:30pm 24.1 21.7 4.5 28 9.9 E 6 6 3 3 1016.2 1015.2 0.0
28/08:00pm 24.1 21.6 4.5 28 9.9 ENE 7 7 4 4 1016.0 1015.0 0.0
28/07:30pm 25.7 22.8 4.8 26 10.7 NNE 9 9 5 5 1015.6 1014.6 0.0
28/07:00pm 26.1 24.5 4.6 25 11.0 NE 2 7 1 4 1015.3 1014.3 0.0
28/06:30pm 27.2 24.6 4.3 23 11.7 NE 7 7 4 4 1015.0 1014.0 0.0
28/06:00pm 28.4 25.4 4.0 21 12.5 NNE 9 11 5 6 1014.6 1013.6 0.0
28/05:30pm 29.8 26.7 3.7 19 13.4 N 9 13 5 7 1014.3 1013.3 0.0
28/05:00pm 30.9 28.2 3.8 18 14.1 NNE 7 13 4 7 1014.0 1013.0 0.0
28/04:30pm 31.2 28.2 4.1 18 14.2 NW 9 15 5 8 1013.9 1012.9 0.0
28/04:00pm 31.4 28.0 4.2 18 14.3 N 11 17 6 9 1013.8 1012.8 0.0
28/03:30pm 31.2 28.0 4.9 19 13.9 NW 11 20 6 11 1013.9 1012.9 0.0
28/03:00pm 31.1 28.8 5.5 20 13.7 NNW 7 15 4 8 1014.1 1013.1 0.0
28/02:30pm 32.0 28.0 4.7 18 14.5 NNW 15 22 8 12 1014.3 1013.3 0.0
28/02:00pm 30.7 27.5 5.2 20 13.5 NW 11 19 6 10 1014.6 1013.6 0.0
28/01:30pm 31.3 29.1 6.4 21 13.5 NE 7 13 4 7 1014.9 1013.9 0.0
28/01:00pm 30.6 27.2 5.8 21 13.3 N 13 24 7 13 1015.4 1014.4 0.0
28/12:30pm 31.5 27.7 5.8 20 13.8 NE 15 28 8 15 1015.8 1014.8 0.0
28/12:00pm 29.9 25.2 5.2 21 13.0 ENE 19 28 10 15 1016.3 1015.4 0.0
28/11:30am 30.2 25.6 5.5 21 13.1 NE 19 32 10 17 1016.9 1015.9 0.0
28/11:00am 29.0 23.7 5.1 22 12.5 NNE 22 32 12 17 1017.4 1016.4 0.0
28/10:30am 28.7 24.5 5.5 23 12.2 NE 17 28 9 15 1017.8 1016.8 0.0
28/10:00am 27.2 22.3 4.3 23 11.7 ENE 19 26 10 14 1018.5 1017.5 0.0
28/09:30am 24.6 21.1 3.3 25 10.5 NE 11 17 6 9 1019.0 1018.0 0.0
28/09:00am 22.7 18.3 2.8 27 9.6 NE 15 20 8 11 1018.9 1017.9 0.0
28/08:30am 21.5 18.6 1.7 27 9.3 WSW 6 9 3 5 1019.3 1018.4 0.0
28/08:00am 21.0 17.6 1.8 28 9.0 SW 9 13 5 7 1019.0 1018.0 0.0
28/07:30am 20.0 15.0 1.4 29 8.6 ENE 17 24 9 13 1018.3 1017.3 0.0
28/07:00am 19.4 15.0 0.4 28 8.5 ESE 13 17 7 9 1018.0 1017.0 0.0
28/06:30am 19.1 13.5 0.2 28 8.4 SE 19 22 10 12 1017.6 1016.6 0.0
28/06:00am 18.5 15.0 1.1 31 7.9 ENE 9 13 5 7 1017.7 1016.7 0.0
28/05:30am 18.8 16.3 -1.1 26 8.6 SE 2 7 1 4 1017.6 1016.6 0.0
28/05:00am 19.5 13.8 -1.0 25 9.0 SE 19 24 10 13 1016.5 1015.6 0.0
28/04:30am 19.1 13.8 -0.8 26 8.7 SE 17 22 9 12 1016.4 1015.5 0.0
28/04:00am 18.3 13.7 -1.0 27 8.3 SE 13 17 7 9 1016.5 1015.6 0.0
28/03:30am 18.5 15.1 -0.8 27 8.4 ENE 7 9 4 5 1017.0 1016.0 0.0
28/03:00am 19.5 14.6 -0.5 26 8.8 SE 15 22 8 12 1016.3 1015.4 0.0
28/02:30am 20.1 14.4 -1.1 24 9.3 SE 19 22 10 12 1015.9 1014.9 0.0
28/02:00am 19.5 13.8 -0.5 26 8.8 SE 19 22 10 12 1016.1 1015.1 0.0
28/01:30am 19.3 14.1 -0.1 27 8.6 SE 17 20 9 11 1016.5 1015.6 0.0
28/01:00am 18.8 13.6 -0.1 28 8.4 SE 17 20 9 11 1016.6 1015.7 0.0
28/12:30am 18.5 13.7 0.2 29 8.1 SSE 15 17 8 9 1017.0 1016.0 0.0
28/12:00am 17.2 12.8 0.4 32 7.4 SE 13 15 7 8 1017.2 1016.2 0.0
 
Date/Time
WST
Temp
°C
App
Temp
°C
Dew
Point
Rel
Hum
%
Delta-T
°C
Wind Press
QNH
hPa
Press
MSL
hPa
Rain
since 9 am
mm
Dir
 
Spd
km/h
Gust
km/h
Spd
kts
Gust
kts
27/11:30pm 17.7 13.6 -0.1 30 7.8 ESE 11 13 6 7 1017.4 1016.4 0.0
27/11:00pm 18.6 14.2 0.2 29 8.2 SE 13 17 7 9 1017.1 1016.1 0.0
27/10:30pm 20.7 15.7 1.1 27 9.0 SE 17 20 9 11 1017.2 1016.2 0.0
27/10:00pm 21.0 16.7 1.3 27 9.1 SE 13 17 7 9 1017.2 1016.2 0.0
27/09:30pm 20.6 16.3 1.0 27 9.0 SE 13 15 7 8 1017.4 1016.4 0.0
27/09:00pm 22.0 17.3 1.1 25 9.7 SE 15 20 8 11 1017.3 1016.3 0.0
27/08:30pm 21.5 16.8 1.2 26 9.4 SSE 15 17 8 9 1017.3 1016.3 0.0
27/08:00pm 21.8 17.6 1.5 26 9.5 SE 13 13 7 7 1017.2 1016.2 0.0
27/07:30pm 22.2 17.9 1.3 25 9.8 SE 13 13 7 7 1017.0 1016.0 0.0
27/07:00pm 23.4 19.2 1.7 24 10.3 SSE 13 13 7 7 1016.6 1015.7 0.0
27/06:30pm 24.1 20.3 1.7 23 10.7 SE 11 13 6 7 1016.3 1015.4 0.0
27/06:00pm 25.5 22.2 2.2 22 11.4 SE 9 11 5 6 1016.0 1015.0 0.0
27/05:30pm 27.3 24.4 2.4 20 12.3 SSE 7 9 4 5 1015.8 1014.8 0.0
27/05:00pm 27.9 24.6 2.2 19 12.7 SE 9 15 5 8 1015.6 1014.6 0.0
27/04:30pm 28.4 24.4 2.6 19 12.9 SE 13 20 7 11 1015.4 1014.4 0.0
27/04:00pm 28.4 24.4 2.6 19 12.9 SE 13 20 7 11 1015.4 1014.4 0.0
27/03:30pm 28.4 24.2 1.8 18 13.1 E 13 17 7 9 1015.6 1014.6 0.0
27/03:00pm 28.8 24.3 2.1 18 13.3 E 15 22 8 12 1015.7 1014.7 0.0
27/02:30pm 29.0 24.5 2.3 18 13.4 ESE 15 22 8 12 1015.9 1014.9 0.0
27/02:00pm 28.2 23.7 2.4 19 12.9 E 15 20 8 11 1016.2 1015.2 0.0
27/01:30pm 27.4 22.2 2.5 20 12.4 E 19 28 10 15 1016.4 1015.5 0.0
27/01:00pm 27.8 22.5 2.8 20 12.5 E 20 32 11 17 1017.0 1016.0 0.0
27/12:30pm 28.4 22.3 0.2 16 13.5 E 22 32 12 17 1017.1 1016.1 0.0
27/12:00pm 27.9 21.6 -1.1 15 13.5 ESE 22 32 12 17 1017.5 1016.5 0.0
27/11:30am 27.6 21.5 -2.3 14 13.7 ESE 20 35 11 19 1017.8 1016.8 0.0
27/11:00am 27.3 20.0 -2.5 14 13.5 ESE 26 32 14 17 1018.1 1017.1 0.0
27/10:30am 26.3 19.9 -1.5 16 12.8 E 22 32 12 17 1018.7 1017.7 0.0
27/10:00am 25.0 18.7 -0.9 18 11.9 ESE 22 28 12 15 1019.1 1018.1 0.0
27/09:30am 23.8 17.1 -1.2 19 11.3 ESE 24 33 13 18 1019.5 1018.6 0.0
27/09:00am 22.1 15.8 -1.2 21 10.4 ESE 22 30 12 16 1019.5 1018.6 0.0
27/08:30am 19.8 13.5 -1.3 24 9.2 ESE 22 32 12 17 1019.5 1018.6 0.0
27/08:00am 18.6 12.6 -1.3 26 8.6 ESE 20 28 11 15 1019.4 1018.5 0.0
27/07:30am 15.7 9.6 -2.3 29 7.4 SE 20 26 11 14 1018.9 1017.9 0.0
27/07:00am 14.2 7.7 -2.7 31 6.8 SE 22 28 12 15 1018.5 1017.5 0.0
27/06:30am 14.2 7.7 -2.7 31 6.8 SE 22 26 12 14 1018.2 1017.2 0.0
27/06:00am 12.5 8.0 -2.9 34 6.0 SE 11 15 6 8 1018.0 1017.0 0.0
27/05:30am 13.6 8.0 -3.2 31 6.6 SE 17 22 9 12 1017.8 1016.8 0.0
27/05:00am 13.4 7.4 -3.4 31 6.6 SE 19 22 10 12 1017.2 1016.2 0.0
27/04:30am 13.8 7.7 -3.5 30 6.8 SE 19 20 10 11 1017.0 1016.0 0.0
27/04:00am 14.2 7.9 -3.6 29 7.0 SE 20 24 11 13 1016.9 1015.9 0.0
27/03:30am 14.5 7.9 -3.3 29 7.1 SE 22 24 12 13 1016.9 1015.9 0.0
27/03:00am 14.6 8.0 -3.2 29 7.1 SE 22 26 12 14 1016.8 1015.8 0.0
27/02:30am 14.8 8.6 -3.0 29 7.1 SE 20 24 11 13 1016.9 1015.9 0.0
27/02:00am 14.9 8.7 -3.4 28 7.3 SE 20 22 11 12 1017.2 1016.2 0.0
27/01:30am 15.4 9.4 -3.0 28 7.4 SE 19 22 10 12 1017.2 1016.2 0.0
27/01:00am 15.9 9.7 -3.1 27 7.7 SE 20 24 11 13 1017.3 1016.3 0.0
27/12:30am 16.3 10.3 -2.7 27 7.8 SE 19 22 10 12 1017.5 1016.5 0.0
27/12:00am 16.7 10.8 -2.4 27 7.9 SE 19 24 10 13 1017.7 1016.7 0.0
 
Date/Time
WST
Temp
°C
App
Temp
°C
Dew
Point
Rel
Hum
%
Delta-T
°C
Wind Press
QNH
hPa
Press
MSL
hPa
Rain
since 9 am
mm
Dir
 
Spd
km/h
Gust
km/h
Spd
kts
Gust
kts
26/11:30pm 17.5 11.6 -2.2 26 8.3 SSE 19 22 10 12 1017.9 1016.9 0.0
26/11:00pm 18.0 12.2 -1.8 26 8.4 SSE 19 22 10 12 1018.0 1017.0 0.0
26/10:30pm 18.1 12.3 -1.7 26 8.4 SSE 19 20 10 11 1018.2 1017.2 0.0
26/10:00pm 18.0 12.2 -1.3 27 8.3 SE 19 24 10 13 1018.2 1017.2 0.0
26/09:30pm 19.5 13.6 -1.0 25 9.0 SSE 20 24 11 13 1018.2 1017.2 0.0
26/09:00pm 19.2 13.3 -0.7 26 8.7 SE 20 28 11 15 1018.2 1017.2 0.0
26/08:30pm 21.1 15.4 0.3 25 9.5 SSE 20 24 11 13 1018.2 1017.2 0.0
26/08:00pm 20.9 15.7 0.2 25 9.4 SE 17 20 9 11 1018.2 1017.2 0.0
26/07:30pm 22.7 17.6 0.5 23 10.3 SSE 17 20 9 11 1018.1 1017.1 0.0
26/07:00pm 23.1 17.9 0.2 22 10.6 SSE 17 19 9 10 1017.8 1016.8 0.0
26/06:30pm 23.7 19.3 0.1 21 10.9 SSE 13 15 7 8 1017.5 1016.5 0.0
26/06:00pm 24.3 20.2 -0.1 20 11.3 SSE 11 15 6 8 1017.2 1016.2 0.0
26/05:30pm 25.8 21.4 0.5 19 12.0 SSE 13 15 7 8 1016.8 1015.8 0.0
26/05:00pm 26.6 22.2 0.4 18 12.5 SE 13 19 7 10 1016.5 1015.6 0.0
26/04:30pm 26.9 22.0 -0.2 17 12.8 ESE 15 22 8 12 1016.2 1015.2 0.0
26/04:00pm 26.9 22.8 -0.2 17 12.8 SE 11 24 6 13 1016.2 1015.2 0.0
26/03:30pm 27.1 22.6 0.0 17 12.9 S 13 20 7 11 1016.0 1015.0 0.0
26/03:00pm 26.9 21.7 -0.2 17 12.8 SSW 17 28 9 15 1016.2 1015.2 0.0
26/02:30pm 27.1 22.3 0.0 17 12.9 SE 15 26 8 14 1016.3 1015.4 0.0
26/02:00pm 27.0 21.2 -0.1 17 12.8 SSE 20 32 11 17 1016.4 1015.5 0.0
26/01:30pm 28.0 21.8 -0.1 16 13.4 ESE 22 35 12 19 1016.8 1015.8 0.0
26/01:00pm 26.7 20.6 0.4 18 12.5 SE 22 32 12 17 1017.2 1016.2 0.0
26/12:30pm 26.7 20.0 1.2 19 12.3 ESE 26 37 14 20 1017.6 1016.6 0.0
26/12:00pm 26.0 19.3 1.3 20 11.9 SE 26 39 14 21 1018.2 1017.2 0.0
26/11:30am 25.5 18.1 1.6 21 11.5 SE 30 39 16 21 1018.9 1017.9 0.0
26/11:00am 24.4 16.9 1.3 22 11.0 ESE 30 39 16 21 1019.4 1018.5 0.0
26/10:30am 24.3 16.8 1.2 22 11.0 ESE 30 39 16 21 1020.0 1019.1 0.0
26/10:00am 22.6 15.1 1.0 24 10.1 ESE 30 39 16 21 1020.4 1019.4 0.0
26/09:30am 21.7 14.1 0.8 25 9.7 ESE 30 43 16 23 1020.5 1019.5 0.0
26/09:00am 20.6 12.7 1.0 27 9.0 ESE 32 39 17 21 1020.5 1019.5 0.0
26/08:30am 18.8 11.2 0.4 29 8.2 ESE 30 37 16 20 1020.4 1019.4 0.0
26/08:00am 17.7 10.8 0.4 31 7.6 SE 26 35 14 19 1020.1 1019.2 0.0
26/07:30am 15.4 8.0 -0.4 34 6.8 SE 28 35 15 19 1019.9 1019.0 0.0
26/07:00am 13.8 7.6 -0.6 37 6.0 SE 22 28 12 15 1019.4 1018.5 0.0
26/06:30am 12.6 6.7 -0.6 40 5.5 SE 20 26 11 14 1019.1 1018.1 0.0
26/06:00am 12.5 6.6 -1.1 39 5.5 SE 20 24 11 13 1018.9 1017.9 0.0
26/05:30am 13.1 7.4 -0.9 38 5.8 SE 19 22 10 12 1018.6 1017.6 0.0
26/05:00am 13.5 7.8 -0.9 37 6.0 SE 19 24 10 13 1018.4 1017.4 0.0
26/04:30am 14.0 8.1 -0.8 36 6.2 SE 20 24 11 13 1018.1 1017.1 0.0
26/04:00am 14.5 8.2 -0.8 35 6.4 SE 22 26 12 14 1017.9 1016.9 0.0
26/03:30am 15.0 8.7 -0.7 34 6.6 SE 22 28 12 15 1017.8 1016.8 0.0
26/03:00am 15.2 9.0 -0.5 34 6.7 SE 22 28 12 15 1017.8 1016.8 0.0
26/02:30am 15.6 9.4 -0.6 33 6.9 SE 22 28 12 15 1017.7 1016.7 0.0
26/02:00am 15.8 9.6 -0.4 33 6.9 SE 22 26 12 14 1017.9 1016.9 0.0
26/01:30am 15.8 10.0 0.0 34 6.8 SE 20 24 11 13 1018.1 1017.1 0.0
26/01:00am 16.0 10.4 0.2 34 6.9 SE 19 22 10 12 1018.4 1017.4 0.0
26/12:30am 15.8 10.1 0.4 35 6.7 SE 20 24 11 13 1018.5 1017.5 0.0
26/12:00am 17.2 11.2 0.8 33 7.3 SSE 22 30 12 16 1018.5 1017.5 0.0
 
Date/Time
WST
Temp
°C
App
Temp
°C
Dew
Point
Rel
Hum
%
Delta-T
°C
Wind Press
QNH
hPa
Press
MSL
hPa
Rain
since 9 am
mm
Dir
 
Spd
km/h
Gust
km/h
Spd
kts
Gust
kts
25/11:30pm 16.8 11.7 0.9 34 7.1 SE 17 19 9 10 1018.5 1017.5 0.0
25/11:00pm 16.9 11.8 1.0 34 7.1 SE 17 19 9 10 1018.5 1017.5 0.0

Other Formats:

Comma delimited format used in spreadsheet applications
http://www.bom.gov.au/fwo/IDW60801/IDW60801.94319.axf

JavaScript Object Notation format (JSON) in row-major order
http://www.bom.gov.au/fwo/IDW60801/IDW60801.94319.json